sensor_id;sensor_type;location;lat;lon;timestamp;P1;durP1;ratioP1;P2;durP2;ratioP2
321;SDS011;148;51.480;7.208;2022-08-20T00:00:49;40.53;;;20.70;;
321;SDS011;148;51.480;7.208;2022-08-20T00:03:19;43.40;;;19.87;;
321;SDS011;148;51.480;7.208;2022-08-20T00:05:54;44.07;;;20.87;;
321;SDS011;148;51.480;7.208;2022-08-20T14:11:02;15.50;;;9.40;;
321;SDS011;148;51.480;7.208;2022-08-20T14:13:27;17.53;;;7.70;;
321;SDS011;148;51.480;7.208;2022-08-20T14:15:54;15.87;;;8.40;;
321;SDS011;148;51.480;7.208;2022-08-20T14:18:20;14.87;;;7.87;;
321;SDS011;148;51.480;7.208;2022-08-20T14:20:46;11.83;;;6.23;;
321;SDS011;148;51.480;7.208;2022-08-20T14:23:13;11.93;;;6.20;;
321;SDS011;148;51.480;7.208;2022-08-20T14:25:38;10.90;;;6.83;;
321;SDS011;148;51.480;7.208;2022-08-20T14:28:08;14.30;;;6.70;;
321;SDS011;148;51.480;7.208;2022-08-20T14:30:39;12.37;;;6.00;;
321;SDS011;148;51.480;7.208;2022-08-20T14:33:05;9.90;;;5.60;;
321;SDS011;148;51.480;7.208;2022-08-20T14:35:31;11.80;;;6.00;;
321;SDS011;148;51.480;7.208;2022-08-20T14:37:57;10.37;;;6.00;;
321;SDS011;148;51.480;7.208;2022-08-20T14:40:23;9.27;;;6.37;;
321;SDS011;148;51.480;7.208;2022-08-20T14:42:50;10.63;;;6.40;;
321;SDS011;148;51.480;7.208;2022-08-20T14:45:17;21.53;;;7.20;;
321;SDS011;148;51.480;7.208;2022-08-20T14:47:45;14.97;;;6.77;;
321;SDS011;148;51.480;7.208;2022-08-20T14:50:22;13.13;;;7.30;;
321;SDS011;148;51.480;7.208;2022-08-20T14:52:51;11.73;;;6.40;;
321;SDS011;148;51.480;7.208;2022-08-20T14:55:18;9.70;;;6.80;;
321;SDS011;148;51.480;7.208;2022-08-20T14:57:45;13.43;;;7.20;;
321;SDS011;148;51.480;7.208;2022-08-20T15:00:13;13.10;;;6.30;;
321;SDS011;148;51.480;7.208;2022-08-20T15:02:42;11.37;;;5.33;;
321;SDS011;148;51.480;7.208;2022-08-20T15:05:09;9.40;;;5.87;;
321;SDS011;148;51.480;7.208;2022-08-20T15:07:37;12.33;;;6.13;;
321;SDS011;148;51.480;7.208;2022-08-20T15:10:08;12.50;;;6.63;;
321;SDS011;148;51.480;7.208;2022-08-20T15:12:36;15.77;;;7.30;;
321;SDS011;148;51.480;7.208;2022-08-20T15:15:03;11.90;;;7.30;;
321;SDS011;148;51.480;7.208;2022-08-20T15:17:33;12.70;;;6.10;;
321;SDS011;148;51.480;7.208;2022-08-20T15:20:06;13.10;;;6.10;;
321;SDS011;148;51.480;7.208;2022-08-20T15:22:35;9.00;;;5.60;;
321;SDS011;148;51.480;7.208;2022-08-20T15:25:05;10.13;;;5.60;;
321;SDS011;148;51.480;7.208;2022-08-20T15:27:33;9.43;;;5.37;;
321;SDS011;148;51.480;7.208;2022-08-20T15:30:01;16.30;;;6.87;;
321;SDS011;148;51.480;7.208;2022-08-20T15:32:34;21.17;;;5.90;;
321;SDS011;148;51.480;7.208;2022-08-20T15:34:59;10.77;;;5.60;;
321;SDS011;148;51.480;7.208;2022-08-20T15:37:25;11.07;;;6.47;;
321;SDS011;148;51.480;7.208;2022-08-20T15:39:51;15.83;;;6.63;;
321;SDS011;148;51.480;7.208;2022-08-20T15:42:17;12.77;;;5.47;;
321;SDS011;148;51.480;7.208;2022-08-20T15:44:44;15.17;;;5.40;;
321;SDS011;148;51.480;7.208;2022-08-20T15:47:14;9.60;;;5.80;;
321;SDS011;148;51.480;7.208;2022-08-20T15:49:53;13.00;;;5.33;;
321;SDS011;148;51.480;7.208;2022-08-20T15:52:23;13.80;;;5.47;;
321;SDS011;148;51.480;7.208;2022-08-20T15:54:54;14.93;;;5.07;;
321;SDS011;148;51.480;7.208;2022-08-20T16:00:09;12.60;;;5.47;;
321;SDS011;148;51.480;7.208;2022-08-20T16:08:34;11.20;;;5.07;;
321;SDS011;148;51.480;7.208;2022-08-20T16:12:23;11.83;;;5.00;;
321;SDS011;148;51.480;7.208;2022-08-20T16:14:27;11.73;;;5.33;;
321;SDS011;148;51.480;7.208;2022-08-20T16:17:16;9.27;;;5.20;;
321;SDS011;148;51.480;7.208;2022-08-20T16:20:05;13.37;;;7.33;;
321;SDS011;148;51.480;7.208;2022-08-20T16:22:42;13.20;;;5.57;;
321;SDS011;148;51.480;7.208;2022-08-20T16:25:10;13.30;;;6.37;;
321;SDS011;148;51.480;7.208;2022-08-20T16:27:55;10.70;;;6.30;;
321;SDS011;148;51.480;7.208;2022-08-20T16:30:40;10.57;;;6.83;;
321;SDS011;148;51.480;7.208;2022-08-20T16:33:15;19.00;;;8.93;;
321;SDS011;148;51.480;7.208;2022-08-20T16:35:49;13.10;;;7.67;;
321;SDS011;148;51.480;7.208;2022-08-20T16:41:13;13.80;;;7.80;;
321;SDS011;148;51.480;7.208;2022-08-20T16:43:52;17.90;;;7.73;;
321;SDS011;148;51.480;7.208;2022-08-20T16:46:25;18.57;;;7.20;;
321;SDS011;148;51.480;7.208;2022-08-20T16:48:55;25.70;;;10.37;;
321;SDS011;148;51.480;7.208;2022-08-20T16:51:45;26.77;;;9.07;;
321;SDS011;148;51.480;7.208;2022-08-20T16:54:14;15.17;;;8.10;;
321;SDS011;148;51.480;7.208;2022-08-20T16:56:44;16.43;;;8.63;;
321;SDS011;148;51.480;7.208;2022-08-20T16:59:16;17.07;;;7.57;;
321;SDS011;148;51.480;7.208;2022-08-20T17:01:45;19.23;;;9.00;;
321;SDS011;148;51.480;7.208;2022-08-20T17:04:23;29.70;;;9.00;;
321;SDS011;148;51.480;7.208;2022-08-20T17:06:49;11.00;;;7.20;;
321;SDS011;148;51.480;7.208;2022-08-20T17:09:33;19.03;;;7.60;;
321;SDS011;148;51.480;7.208;2022-08-20T17:14:43;14.70;;;7.70;;
321;SDS011;148;51.480;7.208;2022-08-20T17:17:21;23.77;;;7.07;;
321;SDS011;148;51.480;7.208;2022-08-20T17:19:56;13.27;;;6.67;;
321;SDS011;148;51.480;7.208;2022-08-20T17:22:25;14.43;;;7.93;;
321;SDS011;148;51.480;7.208;2022-08-20T17:24:52;15.37;;;5.10;;
321;SDS011;148;51.480;7.208;2022-08-20T17:30:18;16.03;;;5.63;;
321;SDS011;148;51.480;7.208;2022-08-20T17:35:39;11.20;;;5.10;;
321;SDS011;148;51.480;7.208;2022-08-20T17:38:07;12.13;;;5.90;;
321;SDS011;148;51.480;7.208;2022-08-20T17:41:09;11.40;;;4.93;;
321;SDS011;148;51.480;7.208;2022-08-20T17:43:37;10.80;;;5.23;;
321;SDS011;148;51.480;7.208;2022-08-20T17:46:06;15.27;;;5.60;;
321;SDS011;148;51.480;7.208;2022-08-20T17:48:40;10.97;;;5.20;;
321;SDS011;148;51.480;7.208;2022-08-20T17:51:19;9.60;;;4.40;;
321;SDS011;148;51.480;7.208;2022-08-20T17:53:50;14.30;;;4.20;;
321;SDS011;148;51.480;7.208;2022-08-20T17:56:21;11.00;;;4.77;;
321;SDS011;148;51.480;7.208;2022-08-20T17:58:53;8.13;;;4.33;;
321;SDS011;148;51.480;7.208;2022-08-20T18:01:20;11.80;;;4.37;;
321;SDS011;148;51.480;7.208;2022-08-20T18:03:47;13.17;;;4.83;;
321;SDS011;148;51.480;7.208;2022-08-20T18:06:18;8.30;;;3.80;;
321;SDS011;148;51.480;7.208;2022-08-20T18:08:56;21.00;;;4.40;;
321;SDS011;148;51.480;7.208;2022-08-20T18:11:31;8.57;;;3.90;;
321;SDS011;148;51.480;7.208;2022-08-20T18:14:22;8.97;;;4.40;;
321;SDS011;148;51.480;7.208;2022-08-20T18:22:30;7.00;;;4.33;;
321;SDS011;148;51.480;7.208;2022-08-20T18:27:44;10.37;;;5.40;;
321;SDS011;148;51.480;7.208;2022-08-20T18:30:14;11.77;;;5.10;;
321;SDS011;148;51.480;7.208;2022-08-20T18:32:45;9.57;;;3.97;;
321;SDS011;148;51.480;7.208;2022-08-20T18:35:19;9.07;;;4.23;;
321;SDS011;148;51.480;7.208;2022-08-20T18:37:54;13.47;;;5.13;;
321;SDS011;148;51.480;7.208;2022-08-20T18:40:30;9.73;;;4.73;;
321;SDS011;148;51.480;7.208;2022-08-20T18:42:57;11.60;;;5.63;;
321;SDS011;148;51.480;7.208;2022-08-20T18:45:30;18.27;;;5.10;;
321;SDS011;148;51.480;7.208;2022-08-20T18:47:58;13.80;;;5.10;;
321;SDS011;148;51.480;7.208;2022-08-20T18:55:39;15.30;;;5.90;;
321;SDS011;148;51.480;7.208;2022-08-20T18:58:28;18.53;;;6.30;;
321;SDS011;148;51.480;7.208;2022-08-20T19:00:56;12.97;;;5.23;;
321;SDS011;148;51.480;7.208;2022-08-20T19:03:36;8.13;;;4.43;;
321;SDS011;148;51.480;7.208;2022-08-20T19:12:29;12.70;;;4.90;;
321;SDS011;148;51.480;7.208;2022-08-20T19:20:35;11.37;;;5.50;;
321;SDS011;148;51.480;7.208;2022-08-20T19:23:07;9.07;;;5.13;;
321;SDS011;148;51.480;7.208;2022-08-20T19:26:00;10.93;;;4.97;;
321;SDS011;148;51.480;7.208;2022-08-20T19:28:49;11.70;;;5.30;;
321;SDS011;148;51.480;7.208;2022-08-20T19:31:18;11.23;;;5.63;;
321;SDS011;148;51.480;7.208;2022-08-20T19:33:44;14.20;;;6.27;;
321;SDS011;148;51.480;7.208;2022-08-20T19:36:12;14.50;;;6.00;;
321;SDS011;148;51.480;7.208;2022-08-20T19:38:50;22.03;;;6.20;;
321;SDS011;148;51.480;7.208;2022-08-20T19:41:23;23.00;;;6.30;;
321;SDS011;148;51.480;7.208;2022-08-20T19:43:50;11.20;;;5.97;;
321;SDS011;148;51.480;7.208;2022-08-20T19:46:18;13.97;;;5.90;;
321;SDS011;148;51.480;7.208;2022-08-20T19:49:09;12.03;;;5.90;;
321;SDS011;148;51.480;7.208;2022-08-20T19:54:20;10.83;;;6.60;;
321;SDS011;148;51.480;7.208;2022-08-20T19:56:48;10.97;;;6.30;;
321;SDS011;148;51.480;7.208;2022-08-20T19:59:20;13.23;;;7.30;;
321;SDS011;148;51.480;7.208;2022-08-20T20:01:50;18.67;;;9.33;;
321;SDS011;148;51.480;7.208;2022-08-20T20:04:18;14.40;;;6.77;;
321;SDS011;148;51.480;7.208;2022-08-20T20:06:45;19.10;;;7.80;;
321;SDS011;148;51.480;7.208;2022-08-20T20:09:16;17.30;;;6.17;;
321;SDS011;148;51.480;7.208;2022-08-20T20:11:58;13.47;;;8.30;;
321;SDS011;148;51.480;7.208;2022-08-20T20:14:33;15.97;;;7.03;;
321;SDS011;148;51.480;7.208;2022-08-20T20:17:03;17.13;;;7.90;;
321;SDS011;148;51.480;7.208;2022-08-20T20:19:29;14.53;;;6.70;;
321;SDS011;148;51.480;7.208;2022-08-20T20:22:11;15.43;;;7.63;;
321;SDS011;148;51.480;7.208;2022-08-20T20:24:44;13.37;;;6.80;;
321;SDS011;148;51.480;7.208;2022-08-20T20:27:19;11.13;;;6.97;;
321;SDS011;148;51.480;7.208;2022-08-20T20:29:47;23.47;;;7.60;;
321;SDS011;148;51.480;7.208;2022-08-20T20:32:20;25.57;;;7.03;;
321;SDS011;148;51.480;7.208;2022-08-20T20:34:52;15.97;;;6.00;;
321;SDS011;148;51.480;7.208;2022-08-20T20:37:26;18.43;;;8.30;;
321;SDS011;148;51.480;7.208;2022-08-20T20:40:03;10.53;;;5.67;;
321;SDS011;148;51.480;7.208;2022-08-20T20:42:34;19.00;;;5.80;;
321;SDS011;148;51.480;7.208;2022-08-20T20:45:01;14.73;;;5.43;;
321;SDS011;148;51.480;7.208;2022-08-20T20:47:39;18.73;;;6.30;;
321;SDS011;148;51.480;7.208;2022-08-20T20:50:11;13.70;;;5.83;;
321;SDS011;148;51.480;7.208;2022-08-20T20:52:48;12.57;;;6.13;;
321;SDS011;148;51.480;7.208;2022-08-20T20:55:23;13.37;;;6.53;;
321;SDS011;148;51.480;7.208;2022-08-20T20:57:56;18.73;;;6.03;;
321;SDS011;148;51.480;7.208;2022-08-20T21:00:24;16.80;;;5.70;;
321;SDS011;148;51.480;7.208;2022-08-20T21:02:52;37.37;;;16.87;;
321;SDS011;148;51.480;7.208;2022-08-20T21:05:20;12.90;;;6.60;;
321;SDS011;148;51.480;7.208;2022-08-20T21:07:58;13.50;;;6.90;;
321;SDS011;148;51.480;7.208;2022-08-20T21:10:30;11.83;;;6.30;;
321;SDS011;148;51.480;7.208;2022-08-20T21:12:59;13.00;;;6.80;;
321;SDS011;148;51.480;7.208;2022-08-20T21:15:27;13.87;;;5.77;;
321;SDS011;148;51.480;7.208;2022-08-20T21:17:53;10.90;;;5.90;;
321;SDS011;148;51.480;7.208;2022-08-20T21:20:23;12.03;;;5.47;;
321;SDS011;148;51.480;7.208;2022-08-20T21:22:50;32.00;;;6.40;;
321;SDS011;148;51.480;7.208;2022-08-20T21:25:15;14.60;;;6.13;;
321;SDS011;148;51.480;7.208;2022-08-20T21:27:46;11.40;;;5.77;;
321;SDS011;148;51.480;7.208;2022-08-20T21:30:13;14.03;;;6.93;;
321;SDS011;148;51.480;7.208;2022-08-20T21:32:40;14.50;;;5.80;;
321;SDS011;148;51.480;7.208;2022-08-20T21:35:06;13.53;;;6.43;;
321;SDS011;148;51.480;7.208;2022-08-20T21:37:33;14.27;;;6.07;;
321;SDS011;148;51.480;7.208;2022-08-20T21:39:59;20.50;;;6.57;;
321;SDS011;148;51.480;7.208;2022-08-20T21:42:25;9.97;;;5.47;;
321;SDS011;148;51.480;7.208;2022-08-20T21:44:51;12.17;;;5.97;;
321;SDS011;148;51.480;7.208;2022-08-20T21:47:17;14.63;;;6.20;;
321;SDS011;148;51.480;7.208;2022-08-20T21:49:43;19.03;;;6.33;;
321;SDS011;148;51.480;7.208;2022-08-20T21:52:08;13.73;;;5.57;;
321;SDS011;148;51.480;7.208;2022-08-20T21:54:34;11.73;;;5.63;;
321;SDS011;148;51.480;7.208;2022-08-20T21:57:01;15.17;;;6.63;;
321;SDS011;148;51.480;7.208;2022-08-20T21:59:33;19.30;;;12.83;;
321;SDS011;148;51.480;7.208;2022-08-20T22:02:01;11.77;;;5.93;;
321;SDS011;148;51.480;7.208;2022-08-20T22:04:28;13.47;;;5.97;;
321;SDS011;148;51.480;7.208;2022-08-20T22:06:53;17.00;;;6.40;;
321;SDS011;148;51.480;7.208;2022-08-20T22:09:19;12.13;;;5.77;;
321;SDS011;148;51.480;7.208;2022-08-20T22:11:45;14.07;;;5.90;;
321;SDS011;148;51.480;7.208;2022-08-20T22:14:12;15.83;;;5.97;;
321;SDS011;148;51.480;7.208;2022-08-20T22:16:40;17.03;;;6.53;;
321;SDS011;148;51.480;7.208;2022-08-20T22:19:06;19.10;;;6.10;;
321;SDS011;148;51.480;7.208;2022-08-20T22:21:32;12.37;;;5.77;;
321;SDS011;148;51.480;7.208;2022-08-20T22:24:00;14.00;;;5.47;;
321;SDS011;148;51.480;7.208;2022-08-20T22:26:29;12.73;;;6.27;;
321;SDS011;148;51.480;7.208;2022-08-20T22:28:56;10.70;;;6.03;;
321;SDS011;148;51.480;7.208;2022-08-20T22:31:25;15.27;;;6.60;;
321;SDS011;148;51.480;7.208;2022-08-20T22:33:53;13.50;;;6.23;;
321;SDS011;148;51.480;7.208;2022-08-20T22:36:19;24.77;;;6.93;;
321;SDS011;148;51.480;7.208;2022-08-20T22:38:45;14.13;;;6.33;;
321;SDS011;148;51.480;7.208;2022-08-20T22:41:11;14.77;;;6.07;;
321;SDS011;148;51.480;7.208;2022-08-20T22:43:36;8.67;;;5.87;;
321;SDS011;148;51.480;7.208;2022-08-20T22:46:02;13.73;;;6.57;;
321;SDS011;148;51.480;7.208;2022-08-20T22:48:28;14.47;;;7.07;;
321;SDS011;148;51.480;7.208;2022-08-20T22:50:54;19.17;;;7.07;;
321;SDS011;148;51.480;7.208;2022-08-20T22:53:21;20.73;;;7.70;;
321;SDS011;148;51.480;7.208;2022-08-20T22:55:48;12.93;;;6.23;;
321;SDS011;148;51.480;7.208;2022-08-20T22:58:14;16.27;;;6.00;;
321;SDS011;148;51.480;7.208;2022-08-20T23:00:40;9.23;;;6.27;;
321;SDS011;148;51.480;7.208;2022-08-20T23:03:08;18.87;;;6.27;;
321;SDS011;148;51.480;7.208;2022-08-20T23:05:35;17.33;;;7.33;;
321;SDS011;148;51.480;7.208;2022-08-20T23:08:03;12.90;;;6.33;;
321;SDS011;148;51.480;7.208;2022-08-20T23:10:34;17.10;;;6.70;;
321;SDS011;148;51.480;7.208;2022-08-20T23:13:01;23.53;;;6.70;;
321;SDS011;148;51.480;7.208;2022-08-20T23:15:28;14.60;;;5.63;;
321;SDS011;148;51.480;7.208;2022-08-20T23:17:56;13.50;;;5.93;;
321;SDS011;148;51.480;7.208;2022-08-20T23:20:26;11.57;;;5.70;;
321;SDS011;148;51.480;7.208;2022-08-20T23:22:51;12.00;;;6.60;;
321;SDS011;148;51.480;7.208;2022-08-20T23:25:17;15.00;;;6.37;;
321;SDS011;148;51.480;7.208;2022-08-20T23:27:44;13.93;;;5.73;;
321;SDS011;148;51.480;7.208;2022-08-20T23:30:12;33.27;;;15.20;;
321;SDS011;148;51.480;7.208;2022-08-20T23:32:39;17.30;;;7.70;;
321;SDS011;148;51.480;7.208;2022-08-20T23:35:05;21.90;;;10.53;;
321;SDS011;148;51.480;7.208;2022-08-20T23:37:32;16.53;;;7.00;;
321;SDS011;148;51.480;7.208;2022-08-20T23:40:01;22.60;;;6.70;;
321;SDS011;148;51.480;7.208;2022-08-20T23:42:28;13.30;;;6.33;;
321;SDS011;148;51.480;7.208;2022-08-20T23:44:54;14.93;;;6.57;;
321;SDS011;148;51.480;7.208;2022-08-20T23:47:20;13.23;;;6.47;;
321;SDS011;148;51.480;7.208;2022-08-20T23:49:46;14.17;;;6.53;;
321;SDS011;148;51.480;7.208;2022-08-20T23:52:12;15.90;;;6.10;;
321;SDS011;148;51.480;7.208;2022-08-20T23:54:38;10.07;;;5.90;;
321;SDS011;148;51.480;7.208;2022-08-20T23:57:03;14.53;;;6.83;;
321;SDS011;148;51.480;7.208;2022-08-20T23:59:29;14.00;;;6.00;;
